Main page
METAR-TAF:

METAR-TAF

Airports :

Georgetown Municipal Airport

Georgetown, Texas, United States

latitude: 30-41N, longitude: 097-41W, elevation: 787 ft

Current weather observation

The report was made 59 minutes ago, at 21:56 UTC
Wind 16 mph from the South
Temperature 79°F
Humidity 58%
Pressure 29.79 in. Hg
Visibility: 10 miles
Clear sky

METAR: KGTU 172156Z 19014KT 10SM CLR 26/17 A2979 RMK AO2 SLP085 T02610172

Time: 16:55 (22:55 UTC)


TAF: missing

Weather observations and forecasts of more than 4000 airports (METAR and TAF reports).

The available stations are represented by yellow and red dots on the map.

Hover mouse over dot to see the name of the station.

Then click to see weather observations and forecasts.

To change the map : click on the green buttons with a black cross to zoom in, on the green button with a dash to zoom out, or on the green arrows for adjacent maps.


METAR-TAF: